createdAt,value
2022-12-20T00:02:00.494Z,1.99
2022-12-20T00:04:28.385Z,2.10
2022-12-20T00:06:57.530Z,2.13
2022-12-20T00:09:26.349Z,2.08
2022-12-20T00:11:54.365Z,2.08
2022-12-20T00:14:22.271Z,2.09
2022-12-20T00:16:50.576Z,2.11
2022-12-20T00:19:18.450Z,2.13
2022-12-20T00:21:46.346Z,2.17
2022-12-20T00:24:19.273Z,2.17
2022-12-20T00:26:50.251Z,4.19
2022-12-20T00:29:18.184Z,3.50
2022-12-20T00:31:46.347Z,3.13
2022-12-20T00:34:14.273Z,2.74
2022-12-20T00:36:42.087Z,2.55
2022-12-20T00:39:11.558Z,2.46
2022-12-20T00:41:40.848Z,2.39
2022-12-20T00:44:08.803Z,2.44
2022-12-20T00:46:36.706Z,2.43
2022-12-20T00:49:04.655Z,2.45
2022-12-20T00:51:33.650Z,2.42
2022-12-20T00:54:01.654Z,2.53
2022-12-20T00:56:29.438Z,2.55
2022-12-20T00:59:00.119Z,2.56
2022-12-20T01:01:30.349Z,2.54
2022-12-20T01:03:58.753Z,2.57
2022-12-20T01:06:27.059Z,2.68
2022-12-20T01:08:55.865Z,2.64
2022-12-20T01:11:25.603Z,2.63
2022-12-20T01:13:56.101Z,2.63
2022-12-20T01:16:27.368Z,2.65
2022-12-20T01:18:55.646Z,2.66
2022-12-20T01:21:25.207Z,2.69
2022-12-20T01:23:53.411Z,2.67
2022-12-20T01:26:23.487Z,2.61
2022-12-20T01:28:54.999Z,2.65
2022-12-20T01:31:23.687Z,2.60
2022-12-20T01:33:53.523Z,2.55
2022-12-20T01:36:25.204Z,2.52
2022-12-20T01:38:57.832Z,2.52
2022-12-20T01:41:26.236Z,2.50
2022-12-20T01:43:56.375Z,2.47
2022-12-20T01:46:26.176Z,2.44
2022-12-20T01:49:00.364Z,2.38
2022-12-20T01:51:30.483Z,2.37
2022-12-20T01:54:05.088Z,2.32
2022-12-20T01:56:33.115Z,2.46
2022-12-20T01:59:02.317Z,2.38
2022-12-20T02:01:30.432Z,2.35
2022-12-20T02:03:59.659Z,2.34
2022-12-20T02:06:28.690Z,2.31
2022-12-20T02:08:59.700Z,2.39
2022-12-20T02:11:47.905Z,2.36
2022-12-20T02:14:25.601Z,2.36
2022-12-20T02:16:59.766Z,2.28
2022-12-20T02:19:57.523Z,2.31
2022-12-20T02:22:37.315Z,2.33
2022-12-20T02:25:17.983Z,2.32
2022-12-20T02:27:54.762Z,2.35
2022-12-20T02:30:29.845Z,2.32
2022-12-20T02:33:01.987Z,2.40
2022-12-20T02:35:33.784Z,2.42
2022-12-20T02:38:25.202Z,2.40
2022-12-20T02:40:56.126Z,2.33
2022-12-20T02:43:43.443Z,2.31
2022-12-20T02:46:14.606Z,2.28
2022-12-20T02:48:43.479Z,2.27
2022-12-20T02:51:13.053Z,2.26
2022-12-20T02:53:43.013Z,2.25
2022-12-20T02:56:17.649Z,2.29
2022-12-20T02:58:53.849Z,2.24
2022-12-20T03:01:29.099Z,2.21
2022-12-20T03:03:58.917Z,2.24
2022-12-20T03:06:26.993Z,2.24
2022-12-20T03:08:54.922Z,2.31
2022-12-20T03:11:26.607Z,2.39
2022-12-20T03:13:54.797Z,2.34
2022-12-20T03:16:24.040Z,2.43
2022-12-20T03:18:51.994Z,2.46
2022-12-20T03:21:19.768Z,2.47
2022-12-20T03:23:47.649Z,2.50
2022-12-20T03:26:15.499Z,2.55
2022-12-20T03:28:48.320Z,2.53
2022-12-20T03:31:20.264Z,2.55
2022-12-20T03:33:53.873Z,2.50
2022-12-20T03:36:23.872Z,2.49
2022-12-20T03:38:56.421Z,2.48
2022-12-20T03:41:26.502Z,2.45
2022-12-20T03:43:54.839Z,2.42
2022-12-20T03:46:23.674Z,2.47
2022-12-20T03:48:53.038Z,2.42
2022-12-20T03:51:21.113Z,2.42
2022-12-20T03:53:49.127Z,2.51
2022-12-20T03:56:19.323Z,2.57
2022-12-20T03:58:47.326Z,2.53
2022-12-20T04:01:22.748Z,2.52
2022-12-20T04:03:52.864Z,2.57
2022-12-20T04:06:21.161Z,2.59
2022-12-20T04:08:49.556Z,2.58
2022-12-20T04:11:24.885Z,2.60
2022-12-20T04:13:57.774Z,2.51
2022-12-20T04:16:26.935Z,2.57
2022-12-20T04:18:57.458Z,2.57
2022-12-20T04:21:29.399Z,2.59
2022-12-20T04:23:59.874Z,2.60
2022-12-20T04:26:37.547Z,2.52
2022-12-20T04:29:05.543Z,2.45
2022-12-20T04:31:34.083Z,2.39
2022-12-20T04:34:03.333Z,2.48
2022-12-20T04:36:33.052Z,2.49
2022-12-20T04:39:03.875Z,2.52
2022-12-20T04:41:39.990Z,2.49
2022-12-20T04:44:11.884Z,2.45
2022-12-20T04:46:40.026Z,2.45
2022-12-20T04:49:13.709Z,2.50
2022-12-20T04:51:44.441Z,2.47
2022-12-20T04:54:12.862Z,2.47
2022-12-20T04:56:46.570Z,2.40
2022-12-20T04:59:20.091Z,2.39
2022-12-20T05:01:50.854Z,2.32
2022-12-20T05:04:37.604Z,2.32
2022-12-20T05:07:06.287Z,2.34
2022-12-20T05:09:36.302Z,2.36
2022-12-20T05:12:04.294Z,2.34
2022-12-20T05:14:32.601Z,2.37
2022-12-20T05:17:00.533Z,2.39
2022-12-20T05:19:29.379Z,2.45
2022-12-20T05:22:16.160Z,2.46
2022-12-20T05:25:13.019Z,2.51
2022-12-20T05:27:42.060Z,2.58
2022-12-20T05:30:10.897Z,2.55
2022-12-20T05:32:38.824Z,2.51
2022-12-20T05:35:06.885Z,2.52
2022-12-20T05:37:38.893Z,2.55
2022-12-20T05:40:16.122Z,2.46
2022-12-20T05:42:44.638Z,2.45
2022-12-20T05:45:12.894Z,2.45
2022-12-20T05:47:50.001Z,2.39
2022-12-20T05:50:19.220Z,2.37
2022-12-20T05:53:11.583Z,2.39
2022-12-20T05:55:46.980Z,2.38
2022-12-20T05:58:14.822Z,2.46
2022-12-20T06:00:51.853Z,2.42
2022-12-20T06:03:20.419Z,2.43
2022-12-20T06:05:49.176Z,2.59
2022-12-20T06:08:24.914Z,2.76
2022-12-20T06:10:53.941Z,2.98
2022-12-20T06:13:23.219Z,3.10
2022-12-20T06:15:54.086Z,3.24
2022-12-20T06:18:22.917Z,3.24
2022-12-20T06:20:55.462Z,3.26
2022-12-20T06:23:26.533Z,3.23
2022-12-20T06:26:09.276Z,3.37
2022-12-20T06:28:52.583Z,3.40
2022-12-20T06:31:28.097Z,3.37
2022-12-20T06:33:56.639Z,3.36
2022-12-20T06:36:28.265Z,3.40
2022-12-20T06:38:58.666Z,3.43
2022-12-20T06:41:26.817Z,3.43
2022-12-20T06:43:54.711Z,3.37
2022-12-20T06:46:22.517Z,3.33
2022-12-20T06:48:54.107Z,3.25
2022-12-20T06:51:22.724Z,3.37
2022-12-20T06:53:50.939Z,3.48
2022-12-20T06:56:20.812Z,3.50
2022-12-20T06:58:49.133Z,3.51
2022-12-20T07:01:17.643Z,3.51
2022-12-20T07:03:45.447Z,3.55
2022-12-20T07:06:13.310Z,3.50
2022-12-20T07:08:41.084Z,3.51
2022-12-20T07:11:09.357Z,3.42
2022-12-20T07:13:38.511Z,3.42
2022-12-20T07:16:07.080Z,3.55
2022-12-20T07:18:35.717Z,3.57
2022-12-20T07:21:04.958Z,3.59
2022-12-20T07:23:33.117Z,3.61
2022-12-20T07:26:03.952Z,3.60
2022-12-20T07:28:32.230Z,3.66
2022-12-20T07:31:03.641Z,3.59
2022-12-20T07:33:31.648Z,3.58
2022-12-20T07:36:03.410Z,3.64
2022-12-20T07:38:31.356Z,3.63
2022-12-20T07:40:59.151Z,3.71
2022-12-20T07:43:26.956Z,3.70
2022-12-20T07:45:56.838Z,3.77
2022-12-20T07:48:26.129Z,3.91
2022-12-20T07:50:56.868Z,3.97
2022-12-20T07:53:26.010Z,3.94
2022-12-20T07:55:54.980Z,3.90
2022-12-20T07:58:23.686Z,3.90
2022-12-20T08:00:52.005Z,3.86
2022-12-20T08:03:22.736Z,3.87
2022-12-20T08:05:56.210Z,3.94
2022-12-20T08:08:24.278Z,4.02
2022-12-20T08:10:52.449Z,4.09
2022-12-20T08:13:20.314Z,4.16
2022-12-20T08:15:48.319Z,4.19
2022-12-20T08:18:16.159Z,4.26
2022-12-20T08:20:43.967Z,4.24
2022-12-20T08:23:13.136Z,6.03
2022-12-20T08:25:42.166Z,7.55
2022-12-20T08:28:10.861Z,8.20
2022-12-20T08:30:39.010Z,8.74
2022-12-20T08:33:07.200Z,8.87
2022-12-20T08:35:35.516Z,8.59
2022-12-20T08:38:03.319Z,8.46
2022-12-20T08:40:32.537Z,7.90
2022-12-20T08:43:03.736Z,7.82
2022-12-20T08:45:36.086Z,8.01
2022-12-20T08:48:03.915Z,8.26
2022-12-20T08:50:31.986Z,8.73
2022-12-20T08:52:59.766Z,8.48
2022-12-20T08:55:29.482Z,8.60
2022-12-20T08:57:58.850Z,8.63
2022-12-20T09:00:27.135Z,8.71
2022-12-20T09:02:55.983Z,8.64
2022-12-20T09:05:23.939Z,8.80
2022-12-20T09:07:51.757Z,8.62
2022-12-20T09:10:19.685Z,8.70
2022-12-20T09:12:47.484Z,9.11
2022-12-20T09:15:16.860Z,9.18
2022-12-20T09:17:44.682Z,9.42
2022-12-20T09:20:12.900Z,9.30
2022-12-20T09:22:40.867Z,9.10
2022-12-20T09:25:09.670Z,9.06
2022-12-20T09:27:38.106Z,8.63
2022-12-20T09:30:06.770Z,9.03
2022-12-20T09:32:35.996Z,8.88
2022-12-20T09:35:03.790Z,9.25
2022-12-20T09:37:32.363Z,9.33
2022-12-20T09:40:00.417Z,8.37
2022-12-20T09:42:31.000Z,7.81
2022-12-20T09:45:03.233Z,7.33
2022-12-20T09:47:32.181Z,7.03
2022-12-20T09:50:01.452Z,6.91
2022-12-20T09:52:43.954Z,6.87
2022-12-20T09:55:25.225Z,6.66
2022-12-20T09:58:13.624Z,6.61
2022-12-20T10:00:48.636Z,6.85
2022-12-20T10:03:24.681Z,6.99
2022-12-20T10:05:56.265Z,6.99
2022-12-20T10:08:42.756Z,6.96
2022-12-20T10:11:25.675Z,7.09
2022-12-20T10:14:07.747Z,7.09
2022-12-20T10:16:43.654Z,7.21
2022-12-20T10:19:25.051Z,7.29
2022-12-20T10:22:06.091Z,7.31
2022-12-20T10:24:36.114Z,7.46
2022-12-20T10:27:13.993Z,7.50
2022-12-20T10:29:42.510Z,7.43
2022-12-20T10:32:15.546Z,7.57
2022-12-20T10:34:53.110Z,7.45
2022-12-20T10:37:23.897Z,7.38
2022-12-20T10:39:54.643Z,7.63
2022-12-20T10:42:31.833Z,7.67
2022-12-20T10:44:59.901Z,7.76
2022-12-20T10:47:38.948Z,7.82
2022-12-20T10:50:16.443Z,7.81
2022-12-20T10:52:46.933Z,7.90
2022-12-20T10:55:42.886Z,8.00
2022-12-20T10:58:17.126Z,8.05
2022-12-20T11:00:46.367Z,8.14
2022-12-20T11:03:18.435Z,8.25
2022-12-20T11:06:01.586Z,8.26
2022-12-20T11:08:41.173Z,8.35
2022-12-20T11:11:16.426Z,8.40
2022-12-20T11:13:45.044Z,8.41
2022-12-20T11:16:36.137Z,8.57
2022-12-20T11:19:31.143Z,8.72
2022-12-20T11:22:05.958Z,8.92
2022-12-20T11:24:47.255Z,8.89
2022-12-20T11:27:26.886Z,9.03
2022-12-20T11:30:13.665Z,9.09
2022-12-20T11:33:13.586Z,9.23
2022-12-20T11:35:53.491Z,9.21
2022-12-20T11:38:37.973Z,9.23
2022-12-20T11:41:19.568Z,9.26
2022-12-20T11:47:05.377Z,9.55
2022-12-20T11:49:59.602Z,9.56
2022-12-20T11:52:36.654Z,9.68
2022-12-20T11:55:17.946Z,9.80
2022-12-20T11:58:17.496Z,9.75
2022-12-20T12:00:52.242Z,9.81
2022-12-20T12:03:26.570Z,9.76
2022-12-20T12:06:00.918Z,9.81
2022-12-20T12:08:37.033Z,9.68
2022-12-20T12:11:25.518Z,9.55
2022-12-20T12:14:03.075Z,9.46
2022-12-20T12:16:36.369Z,9.36
2022-12-20T12:19:04.838Z,9.35
2022-12-20T12:21:38.116Z,9.32
2022-12-20T12:24:12.755Z,9.41
2022-12-20T12:26:42.715Z,9.44
2022-12-20T12:29:14.873Z,9.42
2022-12-20T12:31:51.498Z,9.34
2022-12-20T12:34:32.537Z,9.34
2022-12-20T12:37:30.428Z,9.36
2022-12-20T12:40:17.217Z,9.27
2022-12-20T12:43:13.954Z,9.30
2022-12-20T12:45:48.003Z,9.28
2022-12-20T12:48:21.641Z,9.21
2022-12-20T12:50:52.084Z,9.29
2022-12-20T12:53:23.792Z,9.20
2022-12-20T12:56:02.401Z,9.07
2022-12-20T12:58:46.434Z,8.96
2022-12-20T13:01:51.659Z,8.91
2022-12-20T13:04:30.695Z,8.85
2022-12-20T13:07:01.729Z,8.76
2022-12-20T13:09:41.955Z,8.75
2022-12-20T13:12:49.768Z,8.68
2022-12-20T13:15:53.303Z,8.62
2022-12-20T13:18:29.716Z,8.56
2022-12-20T13:21:32.916Z,8.47
2022-12-20T13:24:36.385Z,8.32
2022-12-20T13:27:05.585Z,8.25
2022-12-20T13:29:36.020Z,8.25
2022-12-20T13:32:04.496Z,8.17
2022-12-20T13:34:55.135Z,8.18
2022-12-20T13:37:54.587Z,8.08
2022-12-20T13:40:32.407Z,7.99
2022-12-20T13:43:06.901Z,7.87
2022-12-20T13:45:35.876Z,7.78
2022-12-20T13:48:11.380Z,7.67
2022-12-20T13:50:42.990Z,7.55
2022-12-20T13:53:19.123Z,7.51
2022-12-20T13:55:50.768Z,7.52
2022-12-20T13:58:21.028Z,7.53
2022-12-20T14:00:50.507Z,7.58
2022-12-20T14:03:25.254Z,7.84
2022-12-20T14:05:59.535Z,8.41
2022-12-20T14:08:30.987Z,9.03
2022-12-20T14:11:10.192Z,9.57
2022-12-20T14:13:38.494Z,9.94
2022-12-20T14:16:11.684Z,9.89
2022-12-20T14:18:39.617Z,9.68
2022-12-20T14:21:10.488Z,9.32
2022-12-20T14:23:41.723Z,8.89
2022-12-20T14:26:14.232Z,8.56
2022-12-20T14:28:45.130Z,8.28
2022-12-20T14:31:25.221Z,8.06
2022-12-20T14:34:01.950Z,7.87
2022-12-20T14:36:31.768Z,7.73
2022-12-20T14:38:59.603Z,7.62
2022-12-20T14:41:35.863Z,7.52
2022-12-20T14:44:15.146Z,7.32
2022-12-20T14:46:49.321Z,7.09
2022-12-20T14:49:25.840Z,6.96
2022-12-20T14:52:08.813Z,6.77
2022-12-20T14:57:38.920Z,6.43
2022-12-20T15:00:16.519Z,6.48
2022-12-20T15:02:51.444Z,6.40
2022-12-20T15:05:48.551Z,6.31
2022-12-20T15:08:20.622Z,6.20
2022-12-20T15:10:52.672Z,6.06
2022-12-20T15:13:22.681Z,5.93
2022-12-20T15:15:50.592Z,5.87
2022-12-20T15:18:20.749Z,5.86
2022-12-20T15:20:55.635Z,5.88
2022-12-20T15:23:27.592Z,5.86
2022-12-20T15:25:55.671Z,5.78
2022-12-20T15:28:25.500Z,5.69
2022-12-20T15:30:54.687Z,5.58
2022-12-20T15:33:26.069Z,5.51
2022-12-20T15:35:54.753Z,5.33
2022-12-20T15:38:47.568Z,5.40
2022-12-20T15:41:23.335Z,5.35
2022-12-20T15:43:53.698Z,5.30
2022-12-20T15:46:21.723Z,5.29
2022-12-20T15:48:49.893Z,5.28
2022-12-20T15:51:22.891Z,5.19
2022-12-20T15:53:54.461Z,5.05
2022-12-20T15:56:25.500Z,5.06
2022-12-20T15:58:53.744Z,5.00
2022-12-20T16:01:25.099Z,5.08
2022-12-20T16:03:53.207Z,4.95
2022-12-20T16:06:21.338Z,4.93
2022-12-20T16:08:49.093Z,4.84
2022-12-20T16:11:23.076Z,4.77
2022-12-20T16:13:51.208Z,4.80
2022-12-20T16:16:20.783Z,4.80
2022-12-20T16:18:48.793Z,4.80
2022-12-20T16:21:18.768Z,4.80
2022-12-20T16:23:46.710Z,4.79
2022-12-20T16:26:16.143Z,4.75
2022-12-20T16:28:45.297Z,4.67
2022-12-20T16:31:22.627Z,4.64
2022-12-20T16:33:50.675Z,4.63
2022-12-20T16:36:18.565Z,4.54
2022-12-20T16:38:46.476Z,4.58
2022-12-20T16:41:16.070Z,4.60
2022-12-20T16:43:46.260Z,4.83
2022-12-20T16:46:16.673Z,4.57
2022-12-20T16:48:45.453Z,4.95
2022-12-20T16:51:24.356Z,4.94
2022-12-20T16:54:18.047Z,4.78
2022-12-20T16:56:40.809Z,4.80
2022-12-20T16:59:20.083Z,4.69
2022-12-20T17:01:50.842Z,4.55
2022-12-20T17:04:20.552Z,4.61
2022-12-20T17:06:48.661Z,4.77
2022-12-20T17:12:04.278Z,4.72
2022-12-20T17:14:33.502Z,4.81
2022-12-20T17:17:01.366Z,4.79
2022-12-20T17:19:29.184Z,5.00
2022-12-20T17:24:42.561Z,4.90
2022-12-20T17:27:11.550Z,4.87
2022-12-20T17:29:40.829Z,4.66
2022-12-20T17:32:20.608Z,4.68
2022-12-20T17:34:48.892Z,4.61
2022-12-20T17:37:17.543Z,4.56
2022-12-20T17:39:45.439Z,4.37
2022-12-20T17:42:14.400Z,4.72
2022-12-20T17:44:44.141Z,4.62
2022-12-20T17:47:12.706Z,4.56
2022-12-20T17:49:40.508Z,4.64
2022-12-20T17:52:14.244Z,4.57
2022-12-20T17:54:42.114Z,4.68
2022-12-20T17:57:14.294Z,4.58
2022-12-20T17:59:44.029Z,4.50
2022-12-20T18:02:22.904Z,4.36
2022-12-20T18:04:51.553Z,4.42
2022-12-20T18:07:19.513Z,4.37
2022-12-20T18:09:48.565Z,4.33
2022-12-20T18:12:16.532Z,4.33
2022-12-20T18:14:45.927Z,4.30
2022-12-20T18:17:14.052Z,4.35
2022-12-20T18:19:43.796Z,4.54
2022-12-20T18:22:11.641Z,4.60
2022-12-20T18:24:39.379Z,4.63
2022-12-20T18:27:07.187Z,4.68
2022-12-20T18:29:34.927Z,4.52
2022-12-20T18:32:04.452Z,4.45
2022-12-20T18:34:32.453Z,4.37
2022-12-20T18:37:01.892Z,4.20
2022-12-20T18:39:29.704Z,4.05
2022-12-20T18:41:57.677Z,4.04
2022-12-20T18:44:25.455Z,4.02
2022-12-20T18:46:53.677Z,4.13
2022-12-20T18:49:22.950Z,4.13
2022-12-20T18:51:50.757Z,4.12
2022-12-20T18:54:18.571Z,4.10
2022-12-20T18:56:46.493Z,4.04
2022-12-20T18:59:14.364Z,3.96
2022-12-20T19:01:43.589Z,3.99
2022-12-20T19:04:12.304Z,4.03
2022-12-20T19:06:41.483Z,3.98
2022-12-20T19:09:16.864Z,4.13
2022-12-20T19:11:45.058Z,4.15
2022-12-20T19:14:13.447Z,4.16
2022-12-20T19:16:41.344Z,4.14
2022-12-20T19:19:10.058Z,3.98
2022-12-20T19:21:40.969Z,3.87
2022-12-20T19:24:12.203Z,3.93
2022-12-20T19:26:40.224Z,3.86
2022-12-20T19:29:08.662Z,3.80
2022-12-20T19:31:38.025Z,3.83
2022-12-20T19:34:07.896Z,3.76
2022-12-20T19:36:38.688Z,3.77
2022-12-20T19:39:08.602Z,3.97
2022-12-20T19:41:40.122Z,4.00
2022-12-20T19:44:08.845Z,4.08
2022-12-20T19:46:36.954Z,4.04
2022-12-20T19:49:04.897Z,4.10
2022-12-20T19:51:33.019Z,4.11
2022-12-20T19:54:01.243Z,4.13
2022-12-20T19:56:31.479Z,4.14
2022-12-20T19:59:01.460Z,4.24
2022-12-20T20:01:29.892Z,4.17
2022-12-20T20:04:00.157Z,4.19
2022-12-20T20:06:29.316Z,4.28
2022-12-20T20:08:59.639Z,4.32
2022-12-20T20:11:29.086Z,4.26
2022-12-20T20:13:57.526Z,4.24
2022-12-20T20:16:26.759Z,4.27
2022-12-20T20:18:54.813Z,4.31
2022-12-20T20:21:23.939Z,4.44
2022-12-20T20:23:53.525Z,4.67
2022-12-20T20:26:24.123Z,4.72
2022-12-20T20:28:52.493Z,4.86
2022-12-20T20:31:21.689Z,4.97
2022-12-20T20:33:51.949Z,4.98
2022-12-20T20:36:23.029Z,4.93
2022-12-20T20:38:52.300Z,4.98
2022-12-20T20:41:21.003Z,5.02
2022-12-20T20:43:49.482Z,4.99
2022-12-20T20:46:18.534Z,5.01
2022-12-20T20:48:46.756Z,5.17
2022-12-20T20:51:15.984Z,5.14
2022-12-20T20:53:43.790Z,5.27
2022-12-20T20:56:12.031Z,5.33
2022-12-20T20:58:42.313Z,5.35
2022-12-20T21:01:11.537Z,5.35
2022-12-20T21:03:40.274Z,5.48
2022-12-20T21:08:58.841Z,5.52
2022-12-20T21:11:26.832Z,5.44
2022-12-20T21:13:55.240Z,5.57
2022-12-20T21:16:24.394Z,5.89
2022-12-20T21:18:53.017Z,5.88
2022-12-20T21:21:21.456Z,5.88
2022-12-20T21:23:49.476Z,5.75
2022-12-20T21:26:20.192Z,5.74
2022-12-20T21:28:48.492Z,5.79
2022-12-20T21:31:18.617Z,6.02
2022-12-20T21:33:46.868Z,5.94
2022-12-20T21:36:17.135Z,5.88
2022-12-20T21:38:48.334Z,5.73
2022-12-20T21:41:16.123Z,5.69
2022-12-20T21:43:45.365Z,5.75
2022-12-20T21:46:13.208Z,5.87
2022-12-20T21:48:48.289Z,6.00
2022-12-20T21:51:18.160Z,6.10
2022-12-20T21:53:47.596Z,6.32
2022-12-20T21:56:16.500Z,6.54
2022-12-20T21:58:46.679Z,6.53
2022-12-20T22:01:18.195Z,6.47
2022-12-20T22:03:46.102Z,6.43
2022-12-20T22:06:13.919Z,6.40
2022-12-20T22:08:41.684Z,6.38
2022-12-20T22:11:13.144Z,6.33
2022-12-20T22:13:42.303Z,6.38
2022-12-20T22:16:13.671Z,6.37
2022-12-20T22:18:43.010Z,6.41
2022-12-20T22:21:12.844Z,6.43
2022-12-20T22:23:41.775Z,6.35
2022-12-20T22:26:11.645Z,6.27
2022-12-20T22:28:40.445Z,6.21
2022-12-20T22:31:09.587Z,6.07
2022-12-20T22:33:39.656Z,6.03
2022-12-20T22:36:09.349Z,6.01
2022-12-20T22:38:37.205Z,6.14
2022-12-20T22:41:09.623Z,6.09
2022-12-20T22:43:37.880Z,6.10
2022-12-20T22:46:06.274Z,6.11
2022-12-20T22:48:34.511Z,6.16
2022-12-20T22:51:06.375Z,5.76
2022-12-20T22:53:35.098Z,5.85
2022-12-20T22:56:03.530Z,5.97
2022-12-20T22:58:32.480Z,6.02
2022-12-20T23:01:01.917Z,5.97
2022-12-20T23:03:31.987Z,5.81
2022-12-20T23:06:01.905Z,5.73
2022-12-20T23:08:34.070Z,5.62
2022-12-20T23:11:20.194Z,5.87
2022-12-20T23:14:05.504Z,6.41
2022-12-20T23:16:33.362Z,6.90
2022-12-20T23:19:02.707Z,6.94
2022-12-20T23:21:48.218Z,7.08
2022-12-20T23:24:17.488Z,7.06
2022-12-20T23:26:45.579Z,6.95
2022-12-20T23:29:14.361Z,6.78
2022-12-20T23:31:42.302Z,6.50
2022-12-20T23:34:10.394Z,6.24
2022-12-20T23:36:38.569Z,5.91
2022-12-20T23:39:06.590Z,5.87
2022-12-20T23:41:36.909Z,6.10
2022-12-20T23:44:05.611Z,6.44
2022-12-20T23:46:33.788Z,6.62
2022-12-20T23:49:01.582Z,6.52
2022-12-20T23:51:29.431Z,6.77
2022-12-20T23:53:57.199Z,6.65
2022-12-20T23:56:25.229Z,6.61
2022-12-20T23:58:55.705Z,6.85
